sensor_id;sensor_type;location;lat;lon;timestamp;pressure;altitude;pressure_sealevel;temperature;humidity
22649;BME280;11491;41.942;24.220;2023-06-26T00:00:31;89806.19;;;16.57;100.00
22649;BME280;11491;41.942;24.220;2023-06-26T00:02:59;89810.38;;;16.44;100.00
22649;BME280;11491;41.942;24.220;2023-06-26T00:05:27;89806.56;;;16.52;100.00
22649;BME280;11491;41.942;24.220;2023-06-26T00:07:56;89811.22;;;16.63;100.00
22649;BME280;11491;41.942;24.220;2023-06-26T00:10:25;89803.88;;;16.56;100.00
22649;BME280;11491;41.942;24.220;2023-06-26T00:12:52;89803.91;;;16.60;100.00
22649;BME280;11491;41.942;24.220;2023-06-26T00:15:19;89798.88;;;16.69;100.00
22649;BME280;11491;41.942;24.220;2023-06-26T00:17:46;89801.22;;;16.77;100.00
22649;BME280;11491;41.942;24.220;2023-06-26T00:20:14;89805.50;;;16.82;100.00
22649;BME280;11491;41.942;24.220;2023-06-26T00:22:43;89800.88;;;16.86;100.00
22649;BME280;11491;41.942;24.220;2023-06-26T00:25:10;89800.88;;;16.79;100.00
22649;BME280;11491;41.942;24.220;2023-06-26T00:27:37;89803.91;;;16.70;100.00
22649;BME280;11491;41.942;24.220;2023-06-26T00:30:04;89805.47;;;16.75;100.00
22649;BME280;11491;41.942;24.220;2023-06-26T00:32:31;89799.31;;;16.82;100.00
22649;BME280;11491;41.942;24.220;2023-06-26T00:34:58;89796.97;;;16.76;100.00
22649;BME280;11491;41.942;24.220;2023-06-26T00:37:26;89797.78;;;16.84;100.00
22649;BME280;11491;41.942;24.220;2023-06-26T00:39:53;89785.47;;;16.90;100.00
22649;BME280;11491;41.942;24.220;2023-06-26T00:42:19;89785.47;;;16.90;100.00
22649;BME280;11491;41.942;24.220;2023-06-26T00:44:46;89788.13;;;16.87;100.00
22649;BME280;11491;41.942;24.220;2023-06-26T00:47:15;89788.53;;;16.96;100.00
22649;BME280;11491;41.942;24.220;2023-06-26T00:49:42;89788.56;;;16.92;100.00
22649;BME280;11491;41.942;24.220;2023-06-26T00:52:09;89785.09;;;16.95;100.00
22649;BME280;11491;41.942;24.220;2023-06-26T00:54:37;89782.00;;;17.00;100.00
22649;BME280;11491;41.942;24.220;2023-06-26T00:57:04;89786.25;;;17.05;100.00
22649;BME280;11491;41.942;24.220;2023-06-26T00:59:31;89777.75;;;17.03;100.00
22649;BME280;11491;41.942;24.220;2023-06-26T01:01:58;89774.28;;;17.03;100.00
22649;BME280;11491;41.942;24.220;2023-06-26T01:04:24;89771.59;;;17.03;100.00
22649;BME280;11491;41.942;24.220;2023-06-26T01:06:53;89775.81;;;16.96;100.00
22649;BME280;11491;41.942;24.220;2023-06-26T01:09:21;89778.50;;;16.96;100.00
22649;BME280;11491;41.942;24.220;2023-06-26T01:11:50;89769.25;;;16.90;100.00
22649;BME280;11491;41.942;24.220;2023-06-26T01:14:17;89773.13;;;16.93;100.00
22649;BME280;11491;41.942;24.220;2023-06-26T01:16:45;89766.97;;;16.92;100.00
22649;BME280;11491;41.942;24.220;2023-06-26T01:19:19;89770.81;;;16.95;100.00
22649;BME280;11491;41.942;24.220;2023-06-26T01:21:51;89765.41;;;16.98;100.00
22649;BME280;11491;41.942;24.220;2023-06-26T01:24:22;89768.47;;;16.93;100.00
22649;BME280;11491;41.942;24.220;2023-06-26T01:26:54;89761.53;;;16.85;100.00
22649;BME280;11491;41.942;24.220;2023-06-26T01:29:21;89761.16;;;16.83;100.00
22649;BME280;11491;41.942;24.220;2023-06-26T01:31:50;89734.50;;;16.67;100.00
22649;BME280;11491;41.942;24.220;2023-06-26T01:34:17;89762.31;;;16.82;100.00
22649;BME280;11491;41.942;24.220;2023-06-26T01:36:45;89759.16;;;16.58;100.00
22649;BME280;11491;41.942;24.220;2023-06-26T01:39:15;89754.56;;;16.63;100.00
22649;BME280;11491;41.942;24.220;2023-06-26T01:41:43;89762.28;;;16.68;100.00
22649;BME280;11491;41.942;24.220;2023-06-26T01:44:18;89761.47;;;16.42;100.00
22649;BME280;11491;41.942;24.220;2023-06-26T01:46:57;89766.09;;;16.56;100.00
22649;BME280;11491;41.942;24.220;2023-06-26T01:49:33;89765.31;;;16.52;100.00
22649;BME280;11491;41.942;24.220;2023-06-26T01:52:07;89768.44;;;16.57;100.00
22649;BME280;11491;41.942;24.220;2023-06-26T01:54:45;89761.47;;;16.56;100.00
22649;BME280;11491;41.942;24.220;2023-06-26T01:57:14;89769.16;;;16.54;100.00
22649;BME280;11491;41.942;24.220;2023-06-26T01:59:46;89757.56;;;16.29;100.00
22649;BME280;11491;41.942;24.220;2023-06-26T02:02:13;89754.06;;;16.18;100.00
22649;BME280;11491;41.942;24.220;2023-06-26T02:04:41;89765.22;;;16.12;100.00
22649;BME280;11491;41.942;24.220;2023-06-26T02:07:08;89762.09;;;16.07;100.00
22649;BME280;11491;41.942;24.220;2023-06-26T02:09:35;89752.09;;;16.14;100.00
22649;BME280;11491;41.942;24.220;2023-06-26T02:12:03;89753.72;;;16.30;100.00
22649;BME280;11491;41.942;24.220;2023-06-26T02:14:29;89748.34;;;16.44;100.00
22649;BME280;11491;41.942;24.220;2023-06-26T02:16:58;89751.06;;;16.51;100.00
22649;BME280;11491;41.942;24.220;2023-06-26T02:19:25;89752.22;;;16.57;100.00
22649;BME280;11491;41.942;24.220;2023-06-26T02:21:52;89741.44;;;16.65;100.00
22649;BME280;11491;41.942;24.220;2023-06-26T02:24:19;89753.78;;;16.73;100.00
22649;BME280;11491;41.942;24.220;2023-06-26T02:26:46;89736.06;;;16.75;100.00
22649;BME280;11491;41.942;24.220;2023-06-26T02:29:14;89750.75;;;16.89;100.00
22649;BME280;11491;41.942;24.220;2023-06-26T02:31:41;89747.66;;;16.90;100.00
22649;BME280;11491;41.942;24.220;2023-06-26T02:34:09;89746.91;;;16.90;100.00
22649;BME280;11491;41.942;24.220;2023-06-26T02:36:36;89751.50;;;16.89;100.00
22649;BME280;11491;41.942;24.220;2023-06-26T02:39:03;89748.81;;;16.96;100.00
22649;BME280;11491;41.942;24.220;2023-06-26T02:41:30;89750.00;;;16.92;100.00
22649;BME280;11491;41.942;24.220;2023-06-26T02:43:56;89745.34;;;16.92;100.00
22649;BME280;11491;41.942;24.220;2023-06-26T02:46:23;89744.56;;;16.99;100.00
22649;BME280;11491;41.942;24.220;2023-06-26T02:48:50;89745.38;;;16.99;100.00
22649;BME280;11491;41.942;24.220;2023-06-26T02:51:18;89739.19;;;17.03;100.00
22649;BME280;11491;41.942;24.220;2023-06-26T02:53:45;89742.28;;;17.05;100.00
22649;BME280;11491;41.942;24.220;2023-06-26T02:56:12;89743.81;;;17.06;100.00
22649;BME280;11491;41.942;24.220;2023-06-26T02:58:38;89740.72;;;17.07;100.00
22649;BME280;11491;41.942;24.220;2023-06-26T03:01:05;89745.34;;;17.07;100.00
22649;BME280;11491;41.942;24.220;2023-06-26T03:03:32;89745.34;;;17.10;100.00
22649;BME280;11491;41.942;24.220;2023-06-26T03:06:05;89744.59;;;17.10;100.00
22649;BME280;11491;41.942;24.220;2023-06-26T03:08:36;89748.44;;;17.09;100.00
22649;BME280;11491;41.942;24.220;2023-06-26T03:11:03;89749.22;;;17.06;100.00
22649;BME280;11491;41.942;24.220;2023-06-26T03:13:30;89753.84;;;17.05;100.00
22649;BME280;11491;41.942;24.220;2023-06-26T03:15:57;89755.00;;;17.08;100.00
22649;BME280;11491;41.942;24.220;2023-06-26T03:18:24;89755.78;;;17.12;100.00
22649;BME280;11491;41.942;24.220;2023-06-26T03:20:50;89755.38;;;17.17;100.00
22649;BME280;11491;41.942;24.220;2023-06-26T03:23:19;89757.69;;;17.18;100.00
22649;BME280;11491;41.942;24.220;2023-06-26T03:25:47;89761.16;;;17.15;100.00
22649;BME280;11491;41.942;24.220;2023-06-26T03:28:14;89762.34;;;17.14;100.00
22649;BME280;11491;41.942;24.220;2023-06-26T03:30:41;89756.91;;;17.18;100.00
22649;BME280;11491;41.942;24.220;2023-06-26T03:33:07;89759.25;;;16.94;100.00
22649;BME280;11491;41.942;24.220;2023-06-26T03:35:34;89755.31;;;16.60;100.00
22649;BME280;11491;41.942;24.220;2023-06-26T03:38:04;89769.19;;;16.62;100.00
22649;BME280;11491;41.942;24.220;2023-06-26T03:40:31;89754.56;;;16.70;100.00
22649;BME280;11491;41.942;24.220;2023-06-26T03:42:59;89751.91;;;16.81;100.00
22649;BME280;11491;41.942;24.220;2023-06-26T03:45:26;89753.84;;;16.87;100.00
22649;BME280;11491;41.942;24.220;2023-06-26T03:47:53;89754.63;;;16.95;100.00
22649;BME280;11491;41.942;24.220;2023-06-26T03:50:19;89754.22;;;16.96;100.00
22649;BME280;11491;41.942;24.220;2023-06-26T03:52:46;89755.38;;;17.13;100.00
22649;BME280;11491;41.942;24.220;2023-06-26T03:55:13;89755.38;;;17.17;100.00
22649;BME280;11491;41.942;24.220;2023-06-26T03:57:39;89758.44;;;17.19;100.00
22649;BME280;11491;41.942;24.220;2023-06-26T04:00:09;89755.78;;;17.12;100.00
22649;BME280;11491;41.942;24.220;2023-06-26T04:02:38;89758.88;;;16.99;100.00
22649;BME280;11491;41.942;24.220;2023-06-26T04:05:05;89759.22;;;17.09;100.00
22649;BME280;11491;41.942;24.220;2023-06-26T04:07:32;89761.56;;;17.03;100.00
22649;BME280;11491;41.942;24.220;2023-06-26T04:10:00;89764.66;;;16.94;100.00
22649;BME280;11491;41.942;24.220;2023-06-26T04:12:26;89753.06;;;16.97;100.00
22649;BME280;11491;41.942;24.220;2023-06-26T04:14:53;89760.78;;;17.06;100.00
22649;BME280;11491;41.942;24.220;2023-06-26T04:17:21;89737.63;;;16.91;100.00
22649;BME280;11491;41.942;24.220;2023-06-26T04:19:48;89760.00;;;17.20;100.00
22649;BME280;11491;41.942;24.220;2023-06-26T04:22:15;89755.38;;;17.20;100.00
22649;BME280;11491;41.942;24.220;2023-06-26T04:24:41;89750.75;;;17.14;100.00
22649;BME280;11491;41.942;24.220;2023-06-26T04:27:09;89751.50;;;17.04;100.00
22649;BME280;11491;41.942;24.220;2023-06-26T04:29:36;89755.75;;;17.19;100.00
22649;BME280;11491;41.942;24.220;2023-06-26T04:32:03;89757.31;;;17.13;100.00
22649;BME280;11491;41.942;24.220;2023-06-26T04:34:31;89758.06;;;17.24;100.00
22649;BME280;11491;41.942;24.220;2023-06-26T04:37:00;89773.53;;;17.20;100.00
22649;BME280;11491;41.942;24.220;2023-06-26T04:39:29;89718.34;;;16.99;100.00
22649;BME280;11491;41.942;24.220;2023-06-26T04:41:56;89757.66;;;17.43;100.00
22649;BME280;11491;41.942;24.220;2023-06-26T04:44:24;89767.72;;;17.47;100.00
22649;BME280;11491;41.942;24.220;2023-06-26T04:46:50;89759.19;;;17.59;100.00
22649;BME280;11491;41.942;24.220;2023-06-26T04:49:18;89760.72;;;17.74;100.00
22649;BME280;11491;41.942;24.220;2023-06-26T04:51:46;89768.44;;;17.86;100.00
22649;BME280;11491;41.942;24.220;2023-06-26T04:54:14;89769.94;;;17.98;100.00
22649;BME280;11491;41.942;24.220;2023-06-26T04:56:40;89761.78;;;18.09;100.00
22649;BME280;11491;41.942;24.220;2023-06-26T04:59:09;89742.88;;;18.02;100.00
22649;BME280;11491;41.942;24.220;2023-06-26T05:01:38;89755.94;;;18.21;100.00
22649;BME280;11491;41.942;24.220;2023-06-26T05:04:05;89742.06;;;18.12;100.00
22649;BME280;11491;41.942;24.220;2023-06-26T05:06:32;89770.16;;;18.40;100.00
22649;BME280;11491;41.942;24.220;2023-06-26T05:09:02;89778.63;;;18.45;99.60
22649;BME280;11491;41.942;24.220;2023-06-26T05:11:29;89776.34;;;18.44;100.00
22649;BME280;11491;41.942;24.220;2023-06-26T05:13:55;89762.06;;;18.33;100.00
22649;BME280;11491;41.942;24.220;2023-06-26T05:16:22;89784.00;;;18.52;100.00
22649;BME280;11491;41.942;24.220;2023-06-26T05:18:49;89767.41;;;18.47;99.12
22649;BME280;11491;41.942;24.220;2023-06-26T05:21:16;89785.13;;;18.62;99.48
22649;BME280;11491;41.942;24.220;2023-06-26T05:23:44;89777.34;;;18.68;97.80
22649;BME280;11491;41.942;24.220;2023-06-26T05:26:13;89780.81;;;18.79;98.08
22649;BME280;11491;41.942;24.220;2023-06-26T05:28:40;89783.88;;;18.85;98.08
22649;BME280;11491;41.942;24.220;2023-06-26T05:31:10;89779.53;;;18.98;98.04
22649;BME280;11491;41.942;24.220;2023-06-26T05:33:37;89780.25;;;19.06;97.57
22649;BME280;11491;41.942;24.220;2023-06-26T05:36:06;89785.97;;;19.19;96.70
22649;BME280;11491;41.942;24.220;2023-06-26T05:38:34;89788.63;;;19.26;95.79
22649;BME280;11491;41.942;24.220;2023-06-26T05:41:01;89787.81;;;19.29;95.73
22649;BME280;11491;41.942;24.220;2023-06-26T05:43:29;89780.13;;;19.24;95.34
22649;BME280;11491;41.942;24.220;2023-06-26T05:45:56;89782.38;;;19.32;94.02
22649;BME280;11491;41.942;24.220;2023-06-26T05:48:24;89784.69;;;19.34;92.68
22649;BME280;11491;41.942;24.220;2023-06-26T05:50:51;89777.00;;;19.25;92.46
22649;BME280;11491;41.942;24.220;2023-06-26T05:53:18;89795.53;;;19.34;93.02
22649;BME280;11491;41.942;24.220;2023-06-26T05:55:45;89793.91;;;19.40;92.56
22649;BME280;11491;41.942;24.220;2023-06-26T05:58:14;89796.22;;;19.45;91.36
22649;BME280;11491;41.942;24.220;2023-06-26T06:00:44;89794.63;;;19.51;90.75
22649;BME280;11491;41.942;24.220;2023-06-26T06:03:10;89787.63;;;19.54;90.32
22649;BME280;11491;41.942;24.220;2023-06-26T06:05:37;89792.94;;;19.65;87.66
22649;BME280;11491;41.942;24.220;2023-06-26T06:08:04;89791.34;;;19.74;87.42
22649;BME280;11491;41.942;24.220;2023-06-26T06:10:31;89782.81;;;19.76;87.25
22649;BME280;11491;41.942;24.220;2023-06-26T06:12:57;89784.94;;;19.95;87.71
22649;BME280;11491;41.942;24.220;2023-06-26T06:15:24;89787.16;;;20.08;87.19
22649;BME280;11491;41.942;24.220;2023-06-26T06:17:52;89666.91;;;19.42;83.82
22649;BME280;11491;41.942;24.220;2023-06-26T06:20:19;89792.78;;;20.24;83.28
22649;BME280;11491;41.942;24.220;2023-06-26T06:22:46;89684.25;;;19.52;83.84
22649;BME280;11491;41.942;24.220;2023-06-26T06:25:14;89657.56;;;19.50;83.18
22649;BME280;11491;41.942;24.220;2023-06-26T06:27:41;89774.44;;;20.35;82.31
22649;BME280;11491;41.942;24.220;2023-06-26T06:30:10;89783.47;;;20.25;81.76
22649;BME280;11491;41.942;24.220;2023-06-26T06:32:37;89789.59;;;20.29;81.13
22649;BME280;11491;41.942;24.220;2023-06-26T06:35:06;89764.00;;;19.96;81.26
22649;BME280;11491;41.942;24.220;2023-06-26T06:37:35;89788.75;;;20.01;82.18
22649;BME280;11491;41.942;24.220;2023-06-26T06:40:03;89785.84;;;19.85;83.60
22649;BME280;11491;41.942;24.220;2023-06-26T06:42:31;89785.53;;;19.76;81.28
22649;BME280;11491;41.942;24.220;2023-06-26T06:44:58;89781.69;;;19.70;80.29
22649;BME280;11491;41.942;24.220;2023-06-26T06:47:25;89785.84;;;19.85;81.71
22649;BME280;11491;41.942;24.220;2023-06-26T06:49:51;89684.88;;;19.25;83.65
22649;BME280;11491;41.942;24.220;2023-06-26T06:52:20;89792.50;;;20.15;80.94
22649;BME280;11491;41.942;24.220;2023-06-26T06:54:54;89776.22;;;20.15;81.83
22649;BME280;11491;41.942;24.220;2023-06-26T06:57:24;89794.59;;;20.34;75.31
22649;BME280;11491;41.942;24.220;2023-06-26T06:59:51;89791.97;;;20.27;73.13
22649;BME280;11491;41.942;24.220;2023-06-26T07:02:18;89789.78;;;20.15;73.53
22649;BME280;11491;41.942;24.220;2023-06-26T07:04:44;89790.13;;;20.17;76.64
22649;BME280;11491;41.942;24.220;2023-06-26T07:07:12;89794.84;;;20.13;73.84
22649;BME280;11491;41.942;24.220;2023-06-26T07:09:40;89794.09;;;20.09;76.51
22649;BME280;11491;41.942;24.220;2023-06-26T07:12:07;89793.47;;;19.97;73.25
22649;BME280;11491;41.942;24.220;2023-06-26T07:14:34;89795.88;;;19.88;75.71
22649;BME280;11491;41.942;24.220;2023-06-26T07:17:01;89793.97;;;19.85;74.86
22649;BME280;11491;41.942;24.220;2023-06-26T07:19:27;89803.63;;;19.86;73.46
22649;BME280;11491;41.942;24.220;2023-06-26T07:21:54;89808.09;;;20.04;77.88
22649;BME280;11491;41.942;24.220;2023-06-26T07:24:21;89805.31;;;20.11;74.91
22649;BME280;11491;41.942;24.220;2023-06-26T07:26:49;89799.72;;;19.91;75.04
22649;BME280;11491;41.942;24.220;2023-06-26T07:29:16;89795.88;;;19.88;73.25
22649;BME280;11491;41.942;24.220;2023-06-26T07:31:42;89802.69;;;20.04;71.45
22649;BME280;11491;41.942;24.220;2023-06-26T07:34:10;89813.53;;;20.04;70.74
22649;BME280;11491;41.942;24.220;2023-06-26T07:36:37;89809.00;;;19.93;71.06
22649;BME280;11491;41.942;24.220;2023-06-26T07:39:03;89805.03;;;20.01;73.00
22649;BME280;11491;41.942;24.220;2023-06-26T07:41:30;89805.31;;;20.11;74.08
22649;BME280;11491;41.942;24.220;2023-06-26T07:43:58;89806.72;;;20.26;71.46
22649;BME280;11491;41.942;24.220;2023-06-26T07:46:25;89814.84;;;20.26;71.37
22649;BME280;11491;41.942;24.220;2023-06-26T07:48:52;89813.25;;;20.32;69.15
22649;BME280;11491;41.942;24.220;2023-06-26T07:51:19;89814.16;;;20.18;70.29
22649;BME280;11491;41.942;24.220;2023-06-26T07:53:46;89812.06;;;19.95;69.34
22649;BME280;11491;41.942;24.220;2023-06-26T07:56:12;89813.09;;;20.09;72.03
22649;BME280;11491;41.942;24.220;2023-06-26T07:58:39;89818.81;;;20.18;72.49
22649;BME280;11491;41.942;24.220;2023-06-26T08:01:07;89818.31;;;20.30;69.42
22649;BME280;11491;41.942;24.220;2023-06-26T08:03:34;89815.59;;;20.30;68.67
22649;BME280;11491;41.942;24.220;2023-06-26T08:06:01;89813.66;;;20.65;71.79
22649;BME280;11491;41.942;24.220;2023-06-26T08:08:28;89813.94;;;21.05;71.90
22649;BME280;11491;41.942;24.220;2023-06-26T08:10:55;89816.50;;;21.43;72.48
22649;BME280;11491;41.942;24.220;2023-06-26T08:13:22;89811.47;;;21.41;69.05
22649;BME280;11491;41.942;24.220;2023-06-26T08:15:48;89811.06;;;21.43;69.26
22649;BME280;11491;41.942;24.220;2023-06-26T08:18:17;89803.47;;;21.30;67.00
22649;BME280;11491;41.942;24.220;2023-06-26T08:20:44;89817.72;;;21.11;70.46
22649;BME280;11491;41.942;24.220;2023-06-26T08:23:11;89811.59;;;21.03;66.02
22649;BME280;11491;41.942;24.220;2023-06-26T08:25:37;89799.00;;;20.90;67.92
22649;BME280;11491;41.942;24.220;2023-06-26T08:28:04;89812.13;;;20.95;70.35
22649;BME280;11491;41.942;24.220;2023-06-26T08:30:32;89811.22;;;21.05;70.74
22649;BME280;11491;41.942;24.220;2023-06-26T08:32:58;89812.19;;;21.18;69.20
22649;BME280;11491;41.942;24.220;2023-06-26T08:35:26;89831.19;;;21.49;70.60
22649;BME280;11491;41.942;24.220;2023-06-26T08:37:53;89813.56;;;21.81;67.95
22649;BME280;11491;41.942;24.220;2023-06-26T08:40:21;89814.50;;;22.18;69.46
22649;BME280;11491;41.942;24.220;2023-06-26T08:42:48;89808.47;;;22.30;64.22
22649;BME280;11491;41.942;24.220;2023-06-26T08:45:18;89818.03;;;22.38;66.20
22649;BME280;11491;41.942;24.220;2023-06-26T08:47:48;89824.34;;;22.35;69.12
22649;BME280;11491;41.942;24.220;2023-06-26T08:50:19;89813.88;;;22.53;68.73
22649;BME280;11491;41.942;24.220;2023-06-26T08:52:53;89805.38;;;22.71;69.01
22649;BME280;11491;41.942;24.220;2023-06-26T08:55:23;89809.13;;;22.97;67.74
22649;BME280;11491;41.942;24.220;2023-06-26T08:57:53;89804.38;;;23.38;67.40
22649;BME280;11491;41.942;24.220;2023-06-26T09:00:20;89808.94;;;23.77;69.91
22649;BME280;11491;41.942;24.220;2023-06-26T09:02:47;89796.81;;;24.11;67.99
22649;BME280;11491;41.942;24.220;2023-06-26T09:05:14;89799.41;;;24.47;65.97
22649;BME280;11491;41.942;24.220;2023-06-26T09:07:41;89802.94;;;24.90;63.26
22649;BME280;11491;41.942;24.220;2023-06-26T09:10:10;89800.66;;;25.14;60.22
22649;BME280;11491;41.942;24.220;2023-06-26T09:12:37;89809.78;;;25.24;59.80
22649;BME280;11491;41.942;24.220;2023-06-26T09:15:05;89801.13;;;25.12;59.74
22649;BME280;11491;41.942;24.220;2023-06-26T09:17:33;89799.72;;;25.21;62.04
22649;BME280;11491;41.942;24.220;2023-06-26T09:20:05;89806.84;;;24.89;58.50
22649;BME280;11491;41.942;24.220;2023-06-26T09:22:36;89776.34;;;24.32;57.69
22649;BME280;11491;41.942;24.220;2023-06-26T09:25:05;89803.94;;;24.21;62.21
22649;BME280;11491;41.942;24.220;2023-06-26T09:27:34;89782.28;;;24.14;62.90
22649;BME280;11491;41.942;24.220;2023-06-26T09:30:01;89801.44;;;24.43;61.61
22649;BME280;11491;41.942;24.220;2023-06-26T09:32:28;89789.63;;;24.63;63.18
22649;BME280;11491;41.942;24.220;2023-06-26T09:34:55;89804.06;;;25.05;60.98
22649;BME280;11491;41.942;24.220;2023-06-26T09:37:22;89767.56;;;25.25;59.81
22649;BME280;11491;41.942;24.220;2023-06-26T09:39:50;89776.78;;;25.56;58.09
22649;BME280;11491;41.942;24.220;2023-06-26T09:42:17;89794.38;;;25.68;58.88
22649;BME280;11491;41.942;24.220;2023-06-26T09:44:47;89792.63;;;26.00;58.39
22649;BME280;11491;41.942;24.220;2023-06-26T09:47:16;89785.03;;;26.17;54.75
22649;BME280;11491;41.942;24.220;2023-06-26T09:49:43;89794.81;;;25.92;54.92
22649;BME280;11491;41.942;24.220;2023-06-26T09:52:14;89791.34;;;25.92;58.67
22649;BME280;11491;41.942;24.220;2023-06-26T09:54:41;89788.59;;;25.79;54.11
22649;BME280;11491;41.942;24.220;2023-06-26T09:57:11;89782.44;;;25.75;57.68
22649;BME280;11491;41.942;24.220;2023-06-26T09:59:39;89764.06;;;25.88;57.36
22649;BME280;11491;41.942;24.220;2023-06-26T10:02:08;89791.31;;;26.05;58.27
22649;BME280;11491;41.942;24.220;2023-06-26T10:04:36;89767.72;;;26.20;53.52
22649;BME280;11491;41.942;24.220;2023-06-26T10:07:05;89773.31;;;26.04;57.31
22649;BME280;11491;41.942;24.220;2023-06-26T10:09:33;89769.72;;;26.07;57.06
22649;BME280;11491;41.942;24.220;2023-06-26T10:12:06;89758.69;;;26.32;58.26
22649;BME280;11491;41.942;24.220;2023-06-26T10:14:37;89771.13;;;26.59;55.88
22649;BME280;11491;41.942;24.220;2023-06-26T10:17:10;89754.25;;;26.48;54.93
22649;BME280;11491;41.942;24.220;2023-06-26T10:19:41;89748.75;;;26.48;53.53
22649;BME280;11491;41.942;24.220;2023-06-26T10:22:11;89753.63;;;26.43;50.47
22649;BME280;11491;41.942;24.220;2023-06-26T10:24:41;89760.19;;;26.33;51.72
22649;BME280;11491;41.942;24.220;2023-06-26T10:27:13;89753.84;;;26.36;54.08
22649;BME280;11491;41.942;24.220;2023-06-26T10:29:42;89754.44;;;26.31;58.05
22649;BME280;11491;41.942;24.220;2023-06-26T10:32:12;89751.97;;;26.68;51.48
22649;BME280;11491;41.942;24.220;2023-06-26T10:34:40;89750.44;;;26.89;55.05
22649;BME280;11491;41.942;24.220;2023-06-26T10:37:07;89754.47;;;27.19;51.45
22649;BME280;11491;41.942;24.220;2023-06-26T10:39:46;89742.97;;;26.90;51.45
22649;BME280;11491;41.942;24.220;2023-06-26T10:42:15;89752.25;;;26.61;53.21
22649;BME280;11491;41.942;24.220;2023-06-26T10:44:42;89745.13;;;25.94;50.02
22649;BME280;11491;41.942;24.220;2023-06-26T10:47:11;89747.19;;;25.51;54.89
22649;BME280;11491;41.942;24.220;2023-06-26T10:49:40;89741.66;;;25.42;54.54
22649;BME280;11491;41.942;24.220;2023-06-26T10:52:13;89741.94;;;25.70;56.93
22649;BME280;11491;41.942;24.220;2023-06-26T10:54:40;89733.56;;;26.12;55.86
22649;BME280;11491;41.942;24.220;2023-06-26T10:57:07;89728.38;;;26.71;53.45
22649;BME280;11491;41.942;24.220;2023-06-26T10:59:34;89736.47;;;26.96;51.29
22649;BME280;11491;41.942;24.220;2023-06-26T11:02:02;89737.91;;;27.10;51.13
22649;BME280;11491;41.942;24.220;2023-06-26T11:04:39;89729.09;;;27.15;51.34
22649;BME280;11491;41.942;24.220;2023-06-26T11:07:17;89723.53;;;26.97;50.75
22649;BME280;11491;41.942;24.220;2023-06-26T11:09:56;89727.50;;;26.96;50.37
22649;BME280;11491;41.942;24.220;2023-06-26T11:12:38;89718.81;;;26.53;50.78
22649;BME280;11491;41.942;24.220;2023-06-26T11:15:08;89716.91;;;26.63;53.75
22649;BME280;11491;41.942;24.220;2023-06-26T11:17:35;89717.13;;;27.00;55.90
22649;BME280;11491;41.942;24.220;2023-06-26T11:20:05;89719.56;;;27.20;55.04
22649;BME280;11491;41.942;24.220;2023-06-26T11:22:35;89720.75;;;27.50;54.31
22649;BME280;11491;41.942;24.220;2023-06-26T11:25:03;89698.97;;;27.65;48.78
22649;BME280;11491;41.942;24.220;2023-06-26T11:27:31;89724.84;;;27.14;49.11
22649;BME280;11491;41.942;24.220;2023-06-26T11:29:58;89721.28;;;26.73;49.83
22649;BME280;11491;41.942;24.220;2023-06-26T11:32:26;89728.78;;;26.82;53.86
22649;BME280;11491;41.942;24.220;2023-06-26T11:34:54;89722.00;;;26.96;52.53
22649;BME280;11491;41.942;24.220;2023-06-26T11:37:22;89724.16;;;27.01;45.70
22649;BME280;11491;41.942;24.220;2023-06-26T11:39:49;89723.31;;;27.13;51.72
22649;BME280;11491;41.942;24.220;2023-06-26T11:42:16;89723.28;;;27.04;49.86
22649;BME280;11491;41.942;24.220;2023-06-26T11:44:43;89718.53;;;27.26;53.15
22649;BME280;11491;41.942;24.220;2023-06-26T11:47:14;89729.28;;;27.52;52.37
22649;BME280;11491;41.942;24.220;2023-06-26T11:49:45;89675.84;;;26.94;49.62
22649;BME280;11491;41.942;24.220;2023-06-26T11:52:13;89730.47;;;27.42;51.73
22649;BME280;11491;41.942;24.220;2023-06-26T11:54:42;89725.41;;;27.31;51.98
22649;BME280;11491;41.942;24.220;2023-06-26T11:57:13;89732.03;;;26.68;51.33
22649;BME280;11491;41.942;24.220;2023-06-26T11:59:40;89735.47;;;25.76;52.91
22649;BME280;11491;41.942;24.220;2023-06-26T12:02:08;89740.50;;;25.01;55.81
22649;BME280;11491;41.942;24.220;2023-06-26T12:04:37;89734.88;;;24.66;56.81
22649;BME280;11491;41.942;24.220;2023-06-26T12:07:05;89724.44;;;24.48;59.69
22649;BME280;11491;41.942;24.220;2023-06-26T12:09:34;89728.63;;;24.37;59.16
22649;BME280;11491;41.942;24.220;2023-06-26T12:12:06;89725.97;;;24.20;58.21
22649;BME280;11491;41.942;24.220;2023-06-26T12:14:34;89715.78;;;23.92;59.67
22649;BME280;11491;41.942;24.220;2023-06-26T12:17:05;89694.84;;;23.56;59.68
22649;BME280;11491;41.942;24.220;2023-06-26T12:19:36;89708.66;;;23.49;62.21
22649;BME280;11491;41.942;24.220;2023-06-26T12:22:06;89724.94;;;23.69;62.79
22649;BME280;11491;41.942;24.220;2023-06-26T12:24:34;89732.00;;;23.66;61.33
22649;BME280;11491;41.942;24.220;2023-06-26T12:27:02;89732.44;;;23.48;62.38
22649;BME280;11491;41.942;24.220;2023-06-26T12:29:32;89735.25;;;23.28;63.61
22649;BME280;11491;41.942;24.220;2023-06-26T12:31:59;89728.59;;;22.93;62.01
22649;BME280;11491;41.942;24.220;2023-06-26T12:34:28;89719.28;;;22.74;63.57
22649;BME280;11491;41.942;24.220;2023-06-26T12:37:00;89736.66;;;22.80;64.56
22649;BME280;11491;41.942;24.220;2023-06-26T12:39:29;89722.38;;;22.76;62.41
22649;BME280;11491;41.942;24.220;2023-06-26T12:41:57;89734.94;;;22.70;64.54
22649;BME280;11491;41.942;24.220;2023-06-26T12:44:27;89727.97;;;22.69;63.87
22649;BME280;11491;41.942;24.220;2023-06-26T12:46:57;89725.03;;;22.60;65.59
22649;BME280;11491;41.942;24.220;2023-06-26T12:49:34;89721.34;;;22.50;65.25